Puerto Natales, Chile
Current Conditions -  °F | °C
As of 6:00 PM on Saturday 20 Dec 2014 (Local Time) from SCCI Reporting Station
Scattered Clouds Scattered Clouds  
Wind Chill: 41°   Ceiling: Unl
Heat Index: 48°   Visibility: 6mi
Dew Point: 27°   Wind: 21mph
Humidity: 43%   Direction: 220°SW
Pressure: 29.68"   Gusts: NA
Location:  51.73°S, 72.51°W
Report Text: SCCI 202200Z 22018KT 9999 SCT032 SCT200 09/M03 Q1005 NOSIG
Loading
Personal Weather Stations






























Interactive Weather Map New forecast layout! Learn more

10-Day Weather Forecast

Advertisements
Track Severe Weather on mobile